createdAt,value
2022-12-14T00:01:56.145Z,99578.13
2022-12-14T00:04:23.730Z,99577.56
2022-12-14T00:06:51.362Z,99586.34
2022-12-14T00:09:18.896Z,99593.88
2022-12-14T00:11:46.426Z,99589.44
2022-12-14T00:16:58.751Z,99580.53
2022-12-14T00:19:26.346Z,99593.94
2022-12-14T00:21:56.963Z,99598.88
2022-12-14T00:24:24.410Z,99605.63
2022-12-14T00:26:51.854Z,99607.31
2022-12-14T00:29:19.349Z,99602.16
2022-12-14T00:31:48.627Z,99605.41
2022-12-14T00:34:16.657Z,99605.38
2022-12-14T00:36:45.554Z,99603.19
2022-12-14T00:39:13.075Z,99607.56
2022-12-14T00:41:40.505Z,99607.00
2022-12-14T00:44:08.009Z,99600.72
2022-12-14T00:46:35.533Z,99605.53
2022-12-14T00:49:02.961Z,99606.53
2022-12-14T00:51:30.394Z,99603.38
2022-12-14T00:53:57.803Z,99610.84
2022-12-14T00:56:25.328Z,99608.19
2022-12-14T00:58:54.422Z,99600.75
2022-12-14T01:01:22.430Z,99605.38
2022-12-14T01:03:50.359Z,99596.31
2022-12-14T01:06:21.640Z,99598.91
2022-12-14T01:08:49.964Z,99597.03
2022-12-14T01:11:17.946Z,99586.34
2022-12-14T01:13:49.317Z,99582.75
2022-12-14T01:16:17.437Z,99588.53
2022-12-14T01:18:45.436Z,99584.31
2022-12-14T01:21:17.713Z,99580.25
2022-12-14T01:23:46.751Z,99588.00
2022-12-14T01:26:17.351Z,99596.25
2022-12-14T01:28:46.878Z,99600.97
2022-12-14T01:31:19.617Z,99606.94
2022-12-14T01:33:48.872Z,99610.13
2022-12-14T01:36:25.302Z,99617.44
2022-12-14T01:38:56.808Z,99620.69
2022-12-14T01:41:28.034Z,99611.47
2022-12-14T01:43:57.763Z,99608.19
2022-12-14T01:47:07.380Z,99618.38
2022-12-14T01:49:46.019Z,99618.06
2022-12-14T01:52:43.790Z,99608.81
2022-12-14T01:55:21.810Z,99606.19
2022-12-14T01:58:03.310Z,99598.38
2022-12-14T02:00:31.623Z,99616.03
2022-12-14T02:03:07.755Z,99619.13
2022-12-14T02:05:39.630Z,99614.56
2022-12-14T02:08:08.496Z,99617.88
2022-12-14T02:10:36.687Z,99623.50
2022-12-14T02:13:20.077Z,99622.81
2022-12-14T02:15:48.695Z,99621.63
2022-12-14T02:18:23.203Z,99624.34
2022-12-14T02:21:46.223Z,99633.56
2022-12-14T02:24:46.731Z,99625.97
2022-12-14T02:27:38.409Z,99626.75
2022-12-14T02:30:15.072Z,99626.19
2022-12-14T02:32:49.004Z,99621.00
2022-12-14T02:36:06.425Z,99628.38
2022-12-14T02:38:53.234Z,99629.94
2022-12-14T02:41:41.575Z,99642.88
2022-12-14T02:44:37.889Z,99649.38
2022-12-14T02:47:20.847Z,99641.56
2022-12-14T02:50:49.163Z,99630.75
2022-12-14T02:54:11.088Z,99627.16
2022-12-14T02:56:49.148Z,99621.44
2022-12-14T02:59:18.747Z,99624.78
2022-12-14T03:01:48.806Z,99624.25
2022-12-14T03:04:17.904Z,99625.09
2022-12-14T03:07:00.849Z,99626.97
2022-12-14T03:09:30.687Z,99623.50
2022-12-14T03:12:09.364Z,99618.91
2022-12-14T03:26:34.868Z,99624.44
2022-12-14T03:29:22.044Z,99615.91
2022-12-14T03:31:56.215Z,99616.94
2022-12-14T03:34:36.453Z,99619.53
2022-12-14T03:37:14.916Z,99610.59
2022-12-14T03:39:44.304Z,99613.16
2022-12-14T03:42:26.022Z,99615.72
2022-12-14T03:45:22.416Z,99626.47
2022-12-14T03:48:10.707Z,99626.78
2022-12-14T03:51:13.110Z,99632.00
2022-12-14T03:53:45.890Z,99629.63
2022-12-14T03:56:35.055Z,99626.47
2022-12-14T03:59:20.732Z,99627.53
2022-12-14T04:02:04.753Z,99628.06
2022-12-14T04:04:52.886Z,99623.19
2022-12-14T04:08:20.792Z,99614.66
2022-12-14T04:11:10.946Z,99614.16
2022-12-14T04:14:16.507Z,99603.28
2022-12-14T04:17:06.453Z,99598.09
2022-12-14T04:20:14.269Z,99592.16
2022-12-14T04:22:50.144Z,99593.19
2022-12-14T04:25:44.737Z,99586.16
2022-12-14T04:28:38.405Z,99596.78
2022-12-14T04:31:12.345Z,99594.53
2022-12-14T04:33:46.921Z,99606.41
2022-12-14T04:36:28.411Z,99623.00
2022-12-14T04:39:07.336Z,99611.81
2022-12-14T04:41:44.171Z,99619.94
2022-12-14T04:44:24.950Z,99611.91
2022-12-14T04:46:54.908Z,99608.78
2022-12-14T04:49:51.324Z,99606.22
2022-12-14T04:52:34.375Z,99600.03
2022-12-14T04:55:26.416Z,99599.13
2022-12-14T04:58:12.566Z,99601.00
2022-12-14T05:01:22.814Z,99613.50
2022-12-14T05:04:15.596Z,99624.25
2022-12-14T05:06:52.157Z,99612.22
2022-12-14T05:09:50.379Z,99609.25
2022-12-14T05:12:42.652Z,99616.22
2022-12-14T05:15:23.732Z,99618.56
2022-12-14T05:17:52.958Z,99618.53
2022-12-14T05:20:27.389Z,99625.66
2022-12-14T05:22:55.481Z,99628.72
2022-12-14T05:25:23.346Z,99629.78
2022-12-14T05:27:51.265Z,99617.84
2022-12-14T05:30:19.301Z,99627.38
2022-12-14T05:32:47.661Z,99624.38
2022-12-14T05:35:16.532Z,99623.28
2022-12-14T05:37:44.538Z,99624.66
2022-12-14T05:40:13.235Z,99622.59
2022-12-14T05:42:44.669Z,99617.50
2022-12-14T05:45:16.094Z,99615.44
2022-12-14T05:47:44.054Z,99627.19
2022-12-14T05:50:12.641Z,99630.44
2022-12-14T05:52:40.676Z,99623.25
2022-12-14T05:55:09.913Z,99610.09
2022-12-14T05:57:37.967Z,99617.06
2022-12-14T06:00:07.138Z,99628.16
2022-12-14T06:02:35.690Z,99625.25
2022-12-14T06:05:04.235Z,99627.84
2022-12-14T06:07:31.929Z,99622.28
2022-12-14T06:10:00.090Z,99629.59
2022-12-14T06:12:28.364Z,99644.56
2022-12-14T06:14:56.613Z,99658.44
2022-12-14T06:17:24.570Z,99651.66
2022-12-14T06:19:52.979Z,99644.69
2022-12-14T06:22:21.894Z,99638.94
2022-12-14T06:24:50.051Z,99634.56
2022-12-14T06:27:18.657Z,99645.25
2022-12-14T06:29:46.900Z,99637.09
2022-12-14T06:32:15.081Z,99644.47
2022-12-14T06:34:44.521Z,99646.66
2022-12-14T06:37:13.314Z,99653.91
2022-12-14T06:39:42.144Z,99652.41
2022-12-14T06:42:11.868Z,99648.81
2022-12-14T06:44:40.799Z,99643.78
2022-12-14T06:47:09.194Z,99654.72
2022-12-14T06:49:37.567Z,99665.88
2022-12-14T06:52:06.170Z,99675.25
2022-12-14T06:54:34.433Z,99675.97
2022-12-14T06:57:02.829Z,99686.44
2022-12-14T06:59:31.051Z,99682.75
2022-12-14T07:01:59.685Z,99692.63
2022-12-14T07:04:28.253Z,99699.50
2022-12-14T07:06:56.538Z,99698.75
2022-12-14T07:09:24.740Z,99704.72
2022-12-14T07:11:53.461Z,99709.50
2022-12-14T07:14:21.614Z,99706.69
2022-12-14T07:16:49.744Z,99693.78
2022-12-14T07:19:19.210Z,99697.28
2022-12-14T07:21:47.334Z,99701.75
2022-12-14T07:24:16.067Z,99704.34
2022-12-14T07:26:44.470Z,99704.09
2022-12-14T07:29:14.907Z,99693.69
2022-12-14T07:31:44.486Z,99693.41
2022-12-14T07:34:18.316Z,99691.34
2022-12-14T07:36:49.157Z,99682.66
2022-12-14T07:39:17.639Z,99695.41
2022-12-14T07:41:47.994Z,99700.44
2022-12-14T07:44:21.583Z,99697.19
2022-12-14T07:46:50.212Z,99697.34
2022-12-14T07:49:18.009Z,99692.53
2022-12-14T07:51:46.839Z,99699.94
2022-12-14T07:54:15.574Z,99697.31
2022-12-14T07:56:45.041Z,99706.34
2022-12-14T07:59:18.778Z,99707.41
2022-12-14T08:01:47.753Z,99712.41
2022-12-14T08:04:19.499Z,99713.19
2022-12-14T08:06:49.467Z,99715.69
2022-12-14T08:09:19.319Z,99716.84
2022-12-14T08:11:47.507Z,99710.09
2022-12-14T08:14:19.008Z,99720.69
2022-12-14T08:16:48.899Z,99713.75
2022-12-14T08:19:18.105Z,99701.16
2022-12-14T08:21:46.175Z,99714.34
2022-12-14T08:24:14.587Z,99711.97
2022-12-14T08:26:42.160Z,99712.03
2022-12-14T08:29:15.437Z,99717.06
2022-12-14T08:31:42.963Z,99721.13
2022-12-14T08:34:10.497Z,99713.50
2022-12-14T08:36:37.999Z,99709.66
2022-12-14T08:39:10.313Z,99711.19
2022-12-14T08:41:37.888Z,99716.03
2022-12-14T08:44:06.289Z,99720.25
2022-12-14T08:46:37.581Z,99717.25
2022-12-14T08:49:05.341Z,99715.50
2022-12-14T08:51:32.949Z,99725.63
2022-12-14T08:54:00.420Z,99722.97
2022-12-14T08:56:29.201Z,99721.38
2022-12-14T08:58:57.707Z,99724.88
2022-12-14T09:01:34.004Z,99712.13
2022-12-14T09:04:09.119Z,99698.81
2022-12-14T09:06:39.701Z,99699.06
2022-12-14T09:09:15.656Z,99716.03
2022-12-14T09:11:45.132Z,99712.72
2022-12-14T09:14:13.078Z,99706.06
2022-12-14T09:16:40.994Z,99698.84
2022-12-14T09:19:08.620Z,99700.59
2022-12-14T09:21:36.624Z,99705.59
2022-12-14T09:24:05.354Z,99711.38
2022-12-14T09:26:33.877Z,99702.44
2022-12-14T09:29:01.463Z,99693.22
2022-12-14T09:31:29.254Z,99692.25
2022-12-14T09:33:57.022Z,99688.19
2022-12-14T09:36:28.104Z,99681.00
2022-12-14T09:38:57.709Z,99662.13
2022-12-14T09:41:57.706Z,99641.16
2022-12-14T09:44:43.962Z,99645.44
2022-12-14T09:47:33.903Z,99645.91
2022-12-14T09:50:16.057Z,99643.59
2022-12-14T09:52:51.745Z,99638.19
2022-12-14T09:55:43.470Z,99625.03
2022-12-14T09:58:23.754Z,99626.44
2022-12-14T10:01:24.869Z,99624.00
2022-12-14T10:04:35.804Z,99625.69
2022-12-14T10:07:57.085Z,99636.53
2022-12-14T10:10:32.477Z,99628.88
2022-12-14T10:13:42.707Z,99626.47
2022-12-14T10:16:32.345Z,99628.31
2022-12-14T10:19:41.281Z,99627.50
2022-12-14T10:22:20.415Z,99607.03
2022-12-14T10:25:17.716Z,99604.75
2022-12-14T10:28:20.953Z,99607.69
2022-12-14T10:30:51.265Z,99615.09
2022-12-14T10:33:30.991Z,99621.72
2022-12-14T10:36:21.069Z,99622.59
2022-12-14T10:38:59.040Z,99622.31
2022-12-14T10:41:37.425Z,99624.28
2022-12-14T10:44:21.734Z,99624.84
2022-12-14T10:47:05.965Z,99614.75
2022-12-14T10:49:57.886Z,99610.16
2022-12-14T10:52:36.116Z,99601.94
2022-12-14T10:55:15.431Z,99588.19
2022-12-14T10:57:42.974Z,99592.03
2022-12-14T11:00:23.052Z,99579.78
2022-12-14T11:02:56.126Z,99585.63
2022-12-14T11:06:02.922Z,99574.97
2022-12-14T11:08:47.865Z,99562.41
2022-12-14T11:11:23.822Z,99569.34
2022-12-14T11:14:07.837Z,99570.63
2022-12-14T11:16:41.855Z,99567.47
2022-12-14T11:19:19.365Z,99578.88
2022-12-14T11:21:50.441Z,99564.38
2022-12-14T11:24:27.556Z,99558.75
2022-12-14T11:27:01.424Z,99551.22
2022-12-14T11:29:39.435Z,99542.38
2022-12-14T11:32:17.501Z,99518.38
2022-12-14T11:34:44.952Z,99519.47
2022-12-14T11:37:28.393Z,99514.53
2022-12-14T11:40:01.190Z,99509.22
2022-12-14T11:42:30.932Z,99509.56
2022-12-14T11:45:26.122Z,99506.91
2022-12-14T11:48:20.298Z,99515.72
2022-12-14T11:50:50.385Z,99518.13
2022-12-14T11:53:21.381Z,99520.25
2022-12-14T11:56:14.985Z,99525.56
2022-12-14T11:58:53.512Z,99520.34
2022-12-14T12:01:26.324Z,99520.38
2022-12-14T12:03:58.523Z,99518.13
2022-12-14T12:06:29.472Z,99522.22
2022-12-14T12:09:01.053Z,99524.97
2022-12-14T12:11:32.867Z,99517.56
2022-12-14T12:14:20.250Z,99515.53
2022-12-14T12:16:48.494Z,99517.66
2022-12-14T12:19:27.186Z,99499.47
2022-12-14T12:21:56.500Z,99501.38
2022-12-14T12:24:55.080Z,99499.97
2022-12-14T12:27:27.488Z,99493.63
2022-12-14T12:30:04.782Z,99485.94
2022-12-14T12:32:37.728Z,99480.13
2022-12-14T12:35:16.335Z,99481.09
2022-12-14T12:37:50.951Z,99480.53
2022-12-14T12:40:31.328Z,99477.84
2022-12-14T12:43:38.390Z,99478.78
2022-12-14T12:46:18.700Z,99485.38
2022-12-14T12:48:55.214Z,99487.41
2022-12-14T12:51:50.450Z,99493.03
2022-12-14T12:54:40.844Z,99486.34
2022-12-14T12:57:13.006Z,99489.22
2022-12-14T12:59:51.279Z,99492.56
2022-12-14T13:02:38.585Z,99492.22
2022-12-14T13:05:45.147Z,99501.34
2022-12-14T13:08:26.614Z,99507.25
2022-12-14T13:11:25.154Z,99498.94
2022-12-14T13:14:28.201Z,99496.69
2022-12-14T13:16:57.043Z,99498.22
2022-12-14T13:19:54.635Z,99496.75
2022-12-14T13:22:34.535Z,99493.34
2022-12-14T13:25:16.351Z,99490.59
2022-12-14T13:28:16.059Z,99493.16
2022-12-14T13:31:13.817Z,99488.50
2022-12-14T13:33:55.069Z,99487.94
2022-12-14T13:37:18.375Z,99495.75
2022-12-14T13:40:13.640Z,99500.03
2022-12-14T13:43:05.816Z,99503.03
2022-12-14T13:45:44.947Z,99497.63
2022-12-14T13:48:31.955Z,99493.34
2022-12-14T13:51:23.499Z,99496.31
2022-12-14T13:54:06.052Z,99499.16
2022-12-14T13:56:38.437Z,99494.81
2022-12-14T13:59:33.200Z,99496.53
2022-12-14T14:02:03.314Z,99501.00
2022-12-14T14:04:35.607Z,99503.63
2022-12-14T14:07:25.033Z,99505.28
2022-12-14T14:10:04.711Z,99510.31
2022-12-14T14:12:39.456Z,99503.13
2022-12-14T14:15:25.806Z,99495.00
2022-12-14T14:17:55.913Z,99485.72
2022-12-14T14:20:46.585Z,99486.50
2022-12-14T14:23:16.829Z,99487.53
2022-12-14T14:26:11.491Z,99485.41
2022-12-14T14:28:39.371Z,99508.41
2022-12-14T14:31:09.413Z,99504.72
2022-12-14T14:33:48.878Z,99498.72
2022-12-14T14:36:36.328Z,99513.44
2022-12-14T14:39:55.438Z,99494.47
2022-12-14T14:42:24.452Z,99494.13
2022-12-14T14:45:01.774Z,99484.78
2022-12-14T14:47:41.480Z,99479.56
2022-12-14T14:50:27.061Z,99477.50
2022-12-14T14:53:28.495Z,99473.69
2022-12-14T14:56:05.985Z,99468.00
2022-12-14T14:58:39.477Z,99446.94
2022-12-14T15:01:25.339Z,99446.94
2022-12-14T15:04:02.915Z,99435.25
2022-12-14T15:06:39.814Z,99427.78
2022-12-14T15:09:10.343Z,99423.69
2022-12-14T15:11:52.298Z,99418.63
2022-12-14T15:14:48.330Z,99401.38
2022-12-14T15:17:22.990Z,99384.88
2022-12-14T15:19:54.829Z,99394.31
2022-12-14T15:22:42.169Z,99403.38
2022-12-14T15:25:28.450Z,99412.56
2022-12-14T15:28:06.076Z,99416.63
2022-12-14T15:30:34.697Z,99417.69
2022-12-14T15:33:08.073Z,99421.44
2022-12-14T15:35:39.722Z,99418.50
2022-12-14T15:38:24.851Z,99440.53
2022-12-14T15:41:03.472Z,99439.41
2022-12-14T15:43:31.996Z,99430.72
2022-12-14T15:46:04.804Z,99435.91
2022-12-14T15:48:35.091Z,99439.31
2022-12-14T15:51:10.339Z,99443.25
2022-12-14T15:53:50.886Z,99426.91
2022-12-14T15:56:37.983Z,99425.47
2022-12-14T15:59:24.525Z,99428.97
2022-12-14T16:02:27.271Z,99433.38
2022-12-14T16:04:57.214Z,99436.16
2022-12-14T16:07:38.483Z,99429.53
2022-12-14T16:10:25.941Z,99424.16
2022-12-14T16:13:02.676Z,99429.59
2022-12-14T16:15:31.866Z,99420.53
2022-12-14T16:18:03.411Z,99420.53
2022-12-14T16:20:37.811Z,99421.97
2022-12-14T16:23:14.502Z,99424.31
2022-12-14T16:26:16.815Z,99423.34
2022-12-14T16:28:44.367Z,99422.63
2022-12-14T16:31:25.541Z,99402.94
2022-12-14T16:34:19.166Z,99403.03
2022-12-14T16:39:49.927Z,99404.03
2022-12-14T16:42:26.406Z,99394.56
2022-12-14T16:44:55.719Z,99410.94
2022-12-14T16:48:00.208Z,99406.19
2022-12-14T16:50:54.989Z,99404.03
2022-12-14T16:53:34.166Z,99415.72
2022-12-14T16:56:06.554Z,99410.59
2022-12-14T16:58:40.867Z,99406.13
2022-12-14T17:01:11.176Z,99418.19
2022-12-14T17:03:40.177Z,99417.94
2022-12-14T17:06:16.450Z,99406.31
2022-12-14T17:08:45.388Z,99410.00
2022-12-14T17:11:14.528Z,99414.66
2022-12-14T17:13:42.912Z,99421.97
2022-12-14T17:16:21.013Z,99429.16
2022-12-14T17:18:49.671Z,99441.81
2022-12-14T17:21:28.796Z,99427.22
2022-12-14T17:23:57.530Z,99418.97
2022-12-14T17:26:30.850Z,99420.03
2022-12-14T17:28:58.698Z,99410.00
2022-12-14T17:31:29.595Z,99403.47
2022-12-14T17:33:58.315Z,99392.56
2022-12-14T17:36:25.874Z,99381.72
2022-12-14T17:38:53.339Z,99374.69
2022-12-14T17:41:26.249Z,99367.78
2022-12-14T17:43:57.932Z,99363.84
2022-12-14T17:46:27.031Z,99354.28
2022-12-14T17:48:54.628Z,99357.38
2022-12-14T17:51:27.521Z,99348.84
2022-12-14T17:54:28.806Z,99352.09
2022-12-14T17:57:15.917Z,99345.56
2022-12-14T17:59:47.798Z,99351.22
2022-12-14T18:02:36.118Z,99360.78
2022-12-14T18:05:04.837Z,99354.19
2022-12-14T18:07:32.340Z,99355.66
2022-12-14T18:09:59.855Z,99361.38
2022-12-14T18:12:27.433Z,99364.56
2022-12-14T18:14:55.400Z,99373.22
2022-12-14T18:17:25.082Z,99369.41
2022-12-14T18:19:52.599Z,99362.28
2022-12-14T18:22:21.363Z,99377.94
2022-12-14T18:24:49.394Z,99393.41
2022-12-14T18:27:17.205Z,99418.78
2022-12-14T18:29:44.846Z,99422.13
2022-12-14T18:32:15.505Z,99413.44
2022-12-14T18:34:43.156Z,99416.72
2022-12-14T18:37:11.323Z,99415.25
2022-12-14T18:39:39.253Z,99397.50
2022-12-14T18:42:07.718Z,99376.47
2022-12-14T18:44:35.949Z,99377.50
2022-12-14T18:47:33.199Z,99388.88
2022-12-14T18:49:53.260Z,99375.56
2022-12-14T18:52:20.972Z,99361.06
2022-12-14T18:54:54.468Z,99350.88
2022-12-14T18:57:24.458Z,99349.22
2022-12-14T18:59:55.758Z,99356.41
2022-12-14T19:02:26.909Z,99378.13
2022-12-14T19:04:56.369Z,99387.69
2022-12-14T19:07:24.429Z,99388.75
2022-12-14T19:09:52.567Z,99386.22
2022-12-14T19:12:23.267Z,99375.72
2022-12-14T19:14:57.029Z,99360.84
2022-12-14T19:17:24.851Z,99354.53
2022-12-14T19:19:53.080Z,99357.75
2022-12-14T19:22:22.377Z,99357.63
2022-12-14T19:24:52.599Z,99352.63
2022-12-14T19:27:43.919Z,99347.72
2022-12-14T19:30:14.210Z,99344.13
2022-12-14T19:32:42.194Z,99349.13
2022-12-14T19:35:11.460Z,99336.28
2022-12-14T19:37:39.139Z,99329.19
2022-12-14T19:40:13.341Z,99321.47
2022-12-14T19:42:41.566Z,99306.50
2022-12-14T19:45:11.128Z,99309.84
2022-12-14T19:47:38.880Z,99303.00
2022-12-14T19:50:08.070Z,99295.47
2022-12-14T19:52:35.933Z,99288.44
2022-12-14T19:55:04.728Z,99283.25
2022-12-14T19:57:35.381Z,99280.28
2022-12-14T20:00:03.218Z,99270.94
2022-12-14T20:02:38.493Z,99272.22
2022-12-14T20:05:08.675Z,99270.16
2022-12-14T20:07:41.980Z,99275.19
2022-12-14T20:10:12.267Z,99268.75
2022-12-14T20:12:40.071Z,99268.94
2022-12-14T20:15:09.091Z,99262.88
2022-12-14T20:17:39.097Z,99257.63
2022-12-14T20:20:07.717Z,99248.63
2022-12-14T20:22:35.401Z,99248.28
2022-12-14T20:25:03.508Z,99243.78
2022-12-14T20:27:33.786Z,99233.09
2022-12-14T20:30:09.960Z,99218.91
2022-12-14T20:32:41.464Z,99205.25
2022-12-14T20:35:12.180Z,99194.56
2022-12-14T20:37:45.296Z,99203.13
2022-12-14T20:40:39.496Z,99211.16
2022-12-14T20:43:12.566Z,99194.13
2022-12-14T20:45:44.432Z,99186.47
2022-12-14T20:48:18.392Z,99184.78
2022-12-14T20:50:50.521Z,99177.34
2022-12-14T20:53:22.942Z,99188.59
2022-12-14T20:55:51.954Z,99191.31
2022-12-14T20:58:24.676Z,99201.50
2022-12-14T21:00:53.585Z,99206.72
2022-12-14T21:03:24.080Z,99196.81
2022-12-14T21:05:53.958Z,99205.22
2022-12-14T21:08:21.919Z,99194.34
2022-12-14T21:10:49.440Z,99201.16
2022-12-14T21:13:17.000Z,99194.91
2022-12-14T21:15:45.475Z,99194.34
2022-12-14T21:18:12.979Z,99195.69
2022-12-14T21:20:40.458Z,99200.53
2022-12-14T21:23:07.972Z,99194.69
2022-12-14T21:25:35.466Z,99185.22
2022-12-14T21:28:03.071Z,99174.50
2022-12-14T21:30:30.508Z,99168.69
2022-12-14T21:32:58.743Z,99162.06
2022-12-14T21:35:26.151Z,99141.06
2022-12-14T21:37:55.037Z,99140.41
2022-12-14T21:40:40.828Z,99135.31
2022-12-14T21:43:08.570Z,99130.88
2022-12-14T21:45:36.572Z,99124.97
2022-12-14T21:48:04.276Z,99126.78
2022-12-14T21:50:32.132Z,99118.13
2022-12-14T21:53:01.824Z,99104.09
2022-12-14T21:55:29.287Z,99102.97
2022-12-14T21:58:16.832Z,99106.13
2022-12-14T22:00:47.112Z,99097.81
2022-12-14T22:03:14.992Z,99083.22
2022-12-14T22:05:43.470Z,99068.38
2022-12-14T22:08:10.925Z,99067.69
2022-12-14T22:10:38.409Z,99063.25
2022-12-14T22:13:06.028Z,99061.09
2022-12-14T22:15:33.481Z,99056.59
2022-12-14T22:18:01.030Z,99047.47
2022-12-14T22:20:28.431Z,99049.59
2022-12-14T22:23:00.099Z,99046.91
2022-12-14T22:25:27.710Z,99053.22
2022-12-14T22:27:55.166Z,99050.84
2022-12-14T22:30:27.130Z,99032.47
2022-12-14T22:32:58.281Z,99038.88
2022-12-14T22:35:25.858Z,99027.94
2022-12-14T22:37:53.350Z,99030.22
2022-12-14T22:40:21.982Z,99020.75
2022-12-14T22:42:49.454Z,99018.31
2022-12-14T22:45:17.127Z,99001.63
2022-12-14T22:47:44.606Z,98994.56
2022-12-14T22:50:12.262Z,99000.16
2022-12-14T22:52:40.407Z,99002.47
2022-12-14T22:55:10.954Z,98995.25
2022-12-14T22:57:43.166Z,98986.78
2022-12-14T23:00:17.131Z,98988.41
2022-12-14T23:02:48.080Z,98987.75
2022-12-14T23:05:18.026Z,98992.47
2022-12-14T23:07:45.813Z,98984.16
2022-12-14T23:10:31.759Z,98975.78
2022-12-14T23:13:17.695Z,98996.16
2022-12-14T23:16:04.019Z,98995.22
2022-12-14T23:18:50.219Z,98988.50
2022-12-14T23:21:36.226Z,98975.69
2022-12-14T23:24:22.647Z,98978.50
2022-12-14T23:27:09.947Z,98978.69
2022-12-14T23:29:56.450Z,98973.66
2022-12-14T23:32:42.767Z,98956.31
2022-12-14T23:35:28.535Z,98957.91
2022-12-14T23:38:14.739Z,98973.97
2022-12-14T23:41:00.858Z,98973.88
2022-12-14T23:43:46.733Z,98944.22
2022-12-14T23:46:33.161Z,98942.47
2022-12-14T23:49:19.406Z,98944.22
2022-12-14T23:52:08.246Z,98949.13
2022-12-14T23:54:54.137Z,98958.78
2022-12-14T23:57:40.358Z,98966.59
